sensor_id;sensor_type;location;lat;lon;timestamp;P1;durP1;ratioP1;P2;durP2;ratioP2
18657;SDS011;9458;50.942;5.074;2023-04-16T00:01:00;9.63;;;3.75;;
18657;SDS011;9458;50.942;5.074;2023-04-16T00:03:33;7.40;;;3.85;;
18657;SDS011;9458;50.942;5.074;2023-04-16T00:06:01;7.25;;;3.65;;
18657;SDS011;9458;50.942;5.074;2023-04-16T00:08:35;8.90;;;4.55;;
18657;SDS011;9458;50.942;5.074;2023-04-16T00:11:05;8.32;;;4.07;;
18657;SDS011;9458;50.942;5.074;2023-04-16T00:13:39;6.75;;;3.90;;
18657;SDS011;9458;50.942;5.074;2023-04-16T00:16:15;9.82;;;4.05;;
18657;SDS011;9458;50.942;5.074;2023-04-16T00:18:44;9.00;;;3.92;;
18657;SDS011;9458;50.942;5.074;2023-04-16T00:21:14;5.68;;;4.10;;
18657;SDS011;9458;50.942;5.074;2023-04-16T00:23:47;15.48;;;4.40;;
18657;SDS011;9458;50.942;5.074;2023-04-16T00:26:17;9.68;;;3.90;;
18657;SDS011;9458;50.942;5.074;2023-04-16T00:28:55;5.55;;;4.20;;
18657;SDS011;9458;50.942;5.074;2023-04-16T00:31:25;8.82;;;4.47;;
18657;SDS011;9458;50.942;5.074;2023-04-16T00:33:56;6.53;;;4.20;;
18657;SDS011;9458;50.942;5.074;2023-04-16T00:36:25;7.50;;;3.80;;
18657;SDS011;9458;50.942;5.074;2023-04-16T00:38:53;7.80;;;4.15;;
18657;SDS011;9458;50.942;5.074;2023-04-16T00:41:23;7.00;;;4.38;;
18657;SDS011;9458;50.942;5.074;2023-04-16T00:43:51;7.32;;;4.32;;
18657;SDS011;9458;50.942;5.074;2023-04-16T00:46:19;8.98;;;3.92;;
18657;SDS011;9458;50.942;5.074;2023-04-16T00:48:49;8.82;;;4.30;;
18657;SDS011;9458;50.942;5.074;2023-04-16T00:51:22;9.40;;;4.30;;
18657;SDS011;9458;50.942;5.074;2023-04-16T00:53:54;7.15;;;5.18;;
18657;SDS011;9458;50.942;5.074;2023-04-16T00:56:23;8.52;;;4.18;;
18657;SDS011;9458;50.942;5.074;2023-04-16T00:58:51;6.70;;;4.25;;
18657;SDS011;9458;50.942;5.074;2023-04-16T01:01:20;8.45;;;4.38;;
18657;SDS011;9458;50.942;5.074;2023-04-16T01:03:49;6.78;;;4.53;;
18657;SDS011;9458;50.942;5.074;2023-04-16T01:06:18;6.38;;;4.45;;
18657;SDS011;9458;50.942;5.074;2023-04-16T01:08:54;10.60;;;4.45;;
18657;SDS011;9458;50.942;5.074;2023-04-16T01:11:22;10.25;;;4.95;;
18657;SDS011;9458;50.942;5.074;2023-04-16T01:13:51;7.30;;;4.85;;
18657;SDS011;9458;50.942;5.074;2023-04-16T01:16:18;9.48;;;5.50;;
18657;SDS011;9458;50.942;5.074;2023-04-16T01:18:45;9.43;;;4.35;;
18657;SDS011;9458;50.942;5.074;2023-04-16T01:21:14;13.25;;;5.30;;
18657;SDS011;9458;50.942;5.074;2023-04-16T01:23:41;10.07;;;4.72;;
18657;SDS011;9458;50.942;5.074;2023-04-16T01:26:08;11.07;;;5.07;;
18657;SDS011;9458;50.942;5.074;2023-04-16T01:28:36;10.85;;;5.07;;
18657;SDS011;9458;50.942;5.074;2023-04-16T01:31:04;6.20;;;4.65;;
18657;SDS011;9458;50.942;5.074;2023-04-16T01:33:31;11.45;;;4.63;;
18657;SDS011;9458;50.942;5.074;2023-04-16T01:35:58;7.90;;;4.40;;
18657;SDS011;9458;50.942;5.074;2023-04-16T01:38:28;8.40;;;4.70;;
18657;SDS011;9458;50.942;5.074;2023-04-16T01:40:56;8.45;;;4.60;;
18657;SDS011;9458;50.942;5.074;2023-04-16T01:43:24;8.63;;;4.72;;
18657;SDS011;9458;50.942;5.074;2023-04-16T01:45:53;9.52;;;4.30;;
18657;SDS011;9458;50.942;5.074;2023-04-16T01:48:34;6.45;;;4.20;;
18657;SDS011;9458;50.942;5.074;2023-04-16T01:51:02;7.65;;;4.25;;
18657;SDS011;9458;50.942;5.074;2023-04-16T01:53:31;10.20;;;4.05;;
18657;SDS011;9458;50.942;5.074;2023-04-16T01:55:59;6.43;;;4.40;;
18657;SDS011;9458;50.942;5.074;2023-04-16T01:58:28;11.75;;;4.10;;
18657;SDS011;9458;50.942;5.074;2023-04-16T02:01:00;8.25;;;4.13;;
18657;SDS011;9458;50.942;5.074;2023-04-16T02:03:38;7.72;;;3.67;;
18657;SDS011;9458;50.942;5.074;2023-04-16T02:06:07;8.68;;;3.83;;
18657;SDS011;9458;50.942;5.074;2023-04-16T02:08:37;8.75;;;4.05;;
18657;SDS011;9458;50.942;5.074;2023-04-16T02:11:05;6.35;;;3.42;;
18657;SDS011;9458;50.942;5.074;2023-04-16T02:13:33;9.57;;;3.97;;
18657;SDS011;9458;50.942;5.074;2023-04-16T02:16:00;8.05;;;3.53;;
18657;SDS011;9458;50.942;5.074;2023-04-16T02:18:29;5.53;;;3.35;;
18657;SDS011;9458;50.942;5.074;2023-04-16T02:20:57;6.22;;;3.53;;
18657;SDS011;9458;50.942;5.074;2023-04-16T02:23:25;9.32;;;3.47;;
18657;SDS011;9458;50.942;5.074;2023-04-16T02:25:54;7.47;;;4.07;;
18657;SDS011;9458;50.942;5.074;2023-04-16T02:28:23;6.38;;;3.30;;
18657;SDS011;9458;50.942;5.074;2023-04-16T02:30:51;8.23;;;3.35;;
18657;SDS011;9458;50.942;5.074;2023-04-16T02:33:20;7.70;;;3.85;;
18657;SDS011;9458;50.942;5.074;2023-04-16T02:35:52;5.50;;;4.43;;
18657;SDS011;9458;50.942;5.074;2023-04-16T02:38:20;10.10;;;4.65;;
18657;SDS011;9458;50.942;5.074;2023-04-16T02:40:47;9.93;;;5.00;;
18657;SDS011;9458;50.942;5.074;2023-04-16T02:43:17;7.32;;;4.68;;
18657;SDS011;9458;50.942;5.074;2023-04-16T02:45:44;10.48;;;5.30;;
18657;SDS011;9458;50.942;5.074;2023-04-16T02:48:12;10.70;;;5.22;;
18657;SDS011;9458;50.942;5.074;2023-04-16T02:50:40;8.90;;;5.30;;
18657;SDS011;9458;50.942;5.074;2023-04-16T02:53:07;10.38;;;5.45;;
18657;SDS011;9458;50.942;5.074;2023-04-16T02:55:35;10.93;;;5.65;;
18657;SDS011;9458;50.942;5.074;2023-04-16T02:58:02;7.70;;;5.40;;
18657;SDS011;9458;50.942;5.074;2023-04-16T03:00:32;12.23;;;5.85;;
18657;SDS011;9458;50.942;5.074;2023-04-16T03:03:08;11.32;;;5.90;;
18657;SDS011;9458;50.942;5.074;2023-04-16T03:05:36;10.30;;;5.68;;
18657;SDS011;9458;50.942;5.074;2023-04-16T03:08:04;10.32;;;5.80;;
18657;SDS011;9458;50.942;5.074;2023-04-16T03:10:32;10.13;;;5.80;;
18657;SDS011;9458;50.942;5.074;2023-04-16T03:13:00;10.05;;;6.03;;
18657;SDS011;9458;50.942;5.074;2023-04-16T03:15:28;12.25;;;6.07;;
18657;SDS011;9458;50.942;5.074;2023-04-16T03:17:58;13.43;;;5.88;;
18657;SDS011;9458;50.942;5.074;2023-04-16T03:20:26;7.60;;;5.95;;
18657;SDS011;9458;50.942;5.074;2023-04-16T03:22:53;9.60;;;6.35;;
18657;SDS011;9458;50.942;5.074;2023-04-16T03:25:23;11.52;;;6.57;;
18657;SDS011;9458;50.942;5.074;2023-04-16T03:27:51;9.07;;;6.47;;
18657;SDS011;9458;50.942;5.074;2023-04-16T03:30:19;9.15;;;6.47;;
18657;SDS011;9458;50.942;5.074;2023-04-16T03:32:47;8.88;;;6.50;;
18657;SDS011;9458;50.942;5.074;2023-04-16T03:35:21;10.27;;;6.53;;
18657;SDS011;9458;50.942;5.074;2023-04-16T03:37:51;9.38;;;6.60;;
18657;SDS011;9458;50.942;5.074;2023-04-16T03:40:22;8.77;;;6.10;;
18657;SDS011;9458;50.942;5.074;2023-04-16T03:42:51;11.48;;;6.35;;
18657;SDS011;9458;50.942;5.074;2023-04-16T03:45:19;12.65;;;6.88;;
18657;SDS011;9458;50.942;5.074;2023-04-16T03:47:52;9.90;;;6.82;;
18657;SDS011;9458;50.942;5.074;2023-04-16T03:50:25;7.07;;;5.93;;
18657;SDS011;9458;50.942;5.074;2023-04-16T03:52:54;11.60;;;7.60;;
18657;SDS011;9458;50.942;5.074;2023-04-16T03:55:25;11.45;;;6.75;;
18657;SDS011;9458;50.942;5.074;2023-04-16T03:57:57;16.58;;;7.88;;
18657;SDS011;9458;50.942;5.074;2023-04-16T04:00:28;11.77;;;7.18;;
18657;SDS011;9458;50.942;5.074;2023-04-16T04:02:59;12.50;;;7.25;;
18657;SDS011;9458;50.942;5.074;2023-04-16T04:05:38;10.63;;;7.00;;
18657;SDS011;9458;50.942;5.074;2023-04-16T04:08:10;12.55;;;7.95;;
18657;SDS011;9458;50.942;5.074;2023-04-16T04:10:41;11.50;;;7.90;;
18657;SDS011;9458;50.942;5.074;2023-04-16T04:13:20;11.40;;;7.38;;
18657;SDS011;9458;50.942;5.074;2023-04-16T04:15:50;14.10;;;8.00;;
18657;SDS011;9458;50.942;5.074;2023-04-16T04:18:18;10.52;;;8.00;;
18657;SDS011;9458;50.942;5.074;2023-04-16T04:20:47;14.18;;;8.10;;
18657;SDS011;9458;50.942;5.074;2023-04-16T04:23:15;10.45;;;7.47;;
18657;SDS011;9458;50.942;5.074;2023-04-16T04:25:43;12.65;;;8.15;;
18657;SDS011;9458;50.942;5.074;2023-04-16T04:28:10;13.23;;;8.27;;
18657;SDS011;9458;50.942;5.074;2023-04-16T04:30:40;9.07;;;7.55;;
18657;SDS011;9458;50.942;5.074;2023-04-16T04:33:10;10.93;;;8.77;;
18657;SDS011;9458;50.942;5.074;2023-04-16T04:35:37;12.27;;;8.32;;
18657;SDS011;9458;50.942;5.074;2023-04-16T04:38:07;12.43;;;8.00;;
18657;SDS011;9458;50.942;5.074;2023-04-16T04:40:34;14.20;;;8.07;;
18657;SDS011;9458;50.942;5.074;2023-04-16T04:43:02;9.73;;;7.90;;
18657;SDS011;9458;50.942;5.074;2023-04-16T04:45:32;13.73;;;8.32;;
18657;SDS011;9458;50.942;5.074;2023-04-16T04:48:03;12.02;;;8.45;;
18657;SDS011;9458;50.942;5.074;2023-04-16T04:50:31;13.57;;;8.20;;
18657;SDS011;9458;50.942;5.074;2023-04-16T04:53:02;11.68;;;8.77;;
18657;SDS011;9458;50.942;5.074;2023-04-16T04:55:36;14.80;;;8.40;;
18657;SDS011;9458;50.942;5.074;2023-04-16T04:58:04;11.20;;;8.32;;
18657;SDS011;9458;50.942;5.074;2023-04-16T05:00:33;10.88;;;7.68;;
18657;SDS011;9458;50.942;5.074;2023-04-16T05:03:09;13.93;;;8.48;;
18657;SDS011;9458;50.942;5.074;2023-04-16T05:05:39;12.48;;;9.02;;
18657;SDS011;9458;50.942;5.074;2023-04-16T05:08:12;12.90;;;8.90;;
18657;SDS011;9458;50.942;5.074;2023-04-16T05:10:43;12.68;;;8.50;;
18657;SDS011;9458;50.942;5.074;2023-04-16T05:13:16;14.85;;;8.68;;
18657;SDS011;9458;50.942;5.074;2023-04-16T05:15:45;12.02;;;9.32;;
18657;SDS011;9458;50.942;5.074;2023-04-16T05:18:16;13.20;;;8.63;;
18657;SDS011;9458;50.942;5.074;2023-04-16T05:20:45;12.88;;;9.05;;
18657;SDS011;9458;50.942;5.074;2023-04-16T05:23:13;14.05;;;9.50;;
18657;SDS011;9458;50.942;5.074;2023-04-16T05:25:46;11.38;;;9.13;;
18657;SDS011;9458;50.942;5.074;2023-04-16T05:28:14;14.10;;;9.20;;
18657;SDS011;9458;50.942;5.074;2023-04-16T05:30:43;13.73;;;9.65;;
18657;SDS011;9458;50.942;5.074;2023-04-16T05:33:14;13.82;;;10.00;;
18657;SDS011;9458;50.942;5.074;2023-04-16T05:35:43;12.45;;;9.45;;
18657;SDS011;9458;50.942;5.074;2023-04-16T05:38:13;16.50;;;10.68;;
18657;SDS011;9458;50.942;5.074;2023-04-16T05:40:42;13.35;;;10.02;;
18657;SDS011;9458;50.942;5.074;2023-04-16T05:43:12;15.27;;;9.82;;
18657;SDS011;9458;50.942;5.074;2023-04-16T05:45:39;15.10;;;9.90;;
18657;SDS011;9458;50.942;5.074;2023-04-16T05:48:07;13.00;;;9.75;;
18657;SDS011;9458;50.942;5.074;2023-04-16T05:50:38;11.40;;;8.73;;
18657;SDS011;9458;50.942;5.074;2023-04-16T05:53:07;10.48;;;9.30;;
18657;SDS011;9458;50.942;5.074;2023-04-16T05:55:36;12.90;;;9.70;;
18657;SDS011;9458;50.942;5.074;2023-04-16T05:58:06;11.50;;;9.25;;
18657;SDS011;9458;50.942;5.074;2023-04-16T06:00:36;14.68;;;9.57;;
18657;SDS011;9458;50.942;5.074;2023-04-16T06:03:13;13.15;;;8.48;;
18657;SDS011;9458;50.942;5.074;2023-04-16T06:05:51;16.33;;;9.88;;
18657;SDS011;9458;50.942;5.074;2023-04-16T06:08:21;15.02;;;9.57;;
18657;SDS011;9458;50.942;5.074;2023-04-16T06:10:58;13.63;;;9.68;;
18657;SDS011;9458;50.942;5.074;2023-04-16T06:13:32;14.52;;;9.35;;
18657;SDS011;9458;50.942;5.074;2023-04-16T06:16:02;15.23;;;10.35;;
18657;SDS011;9458;50.942;5.074;2023-04-16T06:18:35;13.65;;;9.75;;
18657;SDS011;9458;50.942;5.074;2023-04-16T06:21:14;12.88;;;9.70;;
18657;SDS011;9458;50.942;5.074;2023-04-16T06:23:42;13.10;;;10.73;;
18657;SDS011;9458;50.942;5.074;2023-04-16T06:26:10;12.77;;;9.88;;
18657;SDS011;9458;50.942;5.074;2023-04-16T06:28:38;15.05;;;10.10;;
18657;SDS011;9458;50.942;5.074;2023-04-16T06:31:09;16.77;;;9.75;;
18657;SDS011;9458;50.942;5.074;2023-04-16T06:33:40;14.07;;;9.38;;
18657;SDS011;9458;50.942;5.074;2023-04-16T06:36:08;12.57;;;9.10;;
18657;SDS011;9458;50.942;5.074;2023-04-16T06:38:38;19.85;;;8.98;;
18657;SDS011;9458;50.942;5.074;2023-04-16T06:41:05;15.63;;;9.88;;
18657;SDS011;9458;50.942;5.074;2023-04-16T06:43:33;13.25;;;9.23;;
18657;SDS011;9458;50.942;5.074;2023-04-16T06:46:01;15.95;;;8.77;;
18657;SDS011;9458;50.942;5.074;2023-04-16T06:48:32;13.32;;;8.90;;
18657;SDS011;9458;50.942;5.074;2023-04-16T06:51:00;11.90;;;8.43;;
18657;SDS011;9458;50.942;5.074;2023-04-16T06:53:29;15.55;;;9.30;;
18657;SDS011;9458;50.942;5.074;2023-04-16T06:55:56;13.63;;;8.20;;
18657;SDS011;9458;50.942;5.074;2023-04-16T06:58:23;15.55;;;9.45;;
18657;SDS011;9458;50.942;5.074;2023-04-16T07:00:51;15.93;;;9.88;;
18657;SDS011;9458;50.942;5.074;2023-04-16T07:03:20;18.73;;;10.38;;
18657;SDS011;9458;50.942;5.074;2023-04-16T07:05:49;14.27;;;9.98;;
18657;SDS011;9458;50.942;5.074;2023-04-16T07:08:17;14.45;;;10.00;;
18657;SDS011;9458;50.942;5.074;2023-04-16T07:10:44;13.32;;;10.68;;
18657;SDS011;9458;50.942;5.074;2023-04-16T07:13:12;14.35;;;11.02;;
18657;SDS011;9458;50.942;5.074;2023-04-16T07:15:41;16.90;;;10.80;;
18657;SDS011;9458;50.942;5.074;2023-04-16T07:18:09;16.73;;;11.55;;
18657;SDS011;9458;50.942;5.074;2023-04-16T07:20:40;15.27;;;11.35;;
18657;SDS011;9458;50.942;5.074;2023-04-16T07:23:10;34.80;;;12.13;;
18657;SDS011;9458;50.942;5.074;2023-04-16T07:25:39;15.82;;;11.45;;
18657;SDS011;9458;50.942;5.074;2023-04-16T07:28:06;16.13;;;10.90;;
18657;SDS011;9458;50.942;5.074;2023-04-16T07:30:34;15.57;;;11.57;;
18657;SDS011;9458;50.942;5.074;2023-04-16T07:33:02;17.38;;;11.05;;
18657;SDS011;9458;50.942;5.074;2023-04-16T07:35:30;14.45;;;11.23;;
18657;SDS011;9458;50.942;5.074;2023-04-16T07:37:59;17.90;;;10.93;;
18657;SDS011;9458;50.942;5.074;2023-04-16T07:40:28;16.20;;;11.23;;
18657;SDS011;9458;50.942;5.074;2023-04-16T07:42:56;13.98;;;11.15;;
18657;SDS011;9458;50.942;5.074;2023-04-16T07:45:27;15.40;;;10.45;;
18657;SDS011;9458;50.942;5.074;2023-04-16T07:47:54;14.10;;;10.98;;
18657;SDS011;9458;50.942;5.074;2023-04-16T07:50:22;15.68;;;11.50;;
18657;SDS011;9458;50.942;5.074;2023-04-16T07:52:50;14.10;;;10.73;;
18657;SDS011;9458;50.942;5.074;2023-04-16T07:55:19;14.48;;;10.98;;
18657;SDS011;9458;50.942;5.074;2023-04-16T07:57:49;16.30;;;11.02;;
18657;SDS011;9458;50.942;5.074;2023-04-16T08:00:17;17.70;;;12.25;;
18657;SDS011;9458;50.942;5.074;2023-04-16T08:02:46;13.70;;;10.77;;
18657;SDS011;9458;50.942;5.074;2023-04-16T08:05:14;16.88;;;11.95;;
18657;SDS011;9458;50.942;5.074;2023-04-16T08:07:42;15.98;;;12.05;;
18657;SDS011;9458;50.942;5.074;2023-04-16T08:10:10;16.30;;;12.40;;
18657;SDS011;9458;50.942;5.074;2023-04-16T08:12:40;20.30;;;12.35;;
18657;SDS011;9458;50.942;5.074;2023-04-16T08:15:09;17.02;;;12.57;;
18657;SDS011;9458;50.942;5.074;2023-04-16T08:17:37;16.15;;;11.52;;
18657;SDS011;9458;50.942;5.074;2023-04-16T08:20:05;18.98;;;12.18;;
18657;SDS011;9458;50.942;5.074;2023-04-16T08:22:34;16.92;;;12.43;;
18657;SDS011;9458;50.942;5.074;2023-04-16T08:25:05;17.13;;;12.07;;
18657;SDS011;9458;50.942;5.074;2023-04-16T08:27:33;13.70;;;11.85;;
18657;SDS011;9458;50.942;5.074;2023-04-16T08:30:02;15.55;;;11.70;;
18657;SDS011;9458;50.942;5.074;2023-04-16T08:32:32;14.15;;;11.57;;
18657;SDS011;9458;50.942;5.074;2023-04-16T08:35:00;17.27;;;12.00;;
18657;SDS011;9458;50.942;5.074;2023-04-16T08:37:28;16.60;;;12.50;;
18657;SDS011;9458;50.942;5.074;2023-04-16T08:39:56;16.98;;;12.13;;
18657;SDS011;9458;50.942;5.074;2023-04-16T08:42:27;21.30;;;11.60;;
18657;SDS011;9458;50.942;5.074;2023-04-16T08:44:59;14.80;;;10.60;;
18657;SDS011;9458;50.942;5.074;2023-04-16T08:47:35;18.20;;;11.70;;
18657;SDS011;9458;50.942;5.074;2023-04-16T08:50:04;14.45;;;11.27;;
18657;SDS011;9458;50.942;5.074;2023-04-16T08:52:33;15.35;;;11.40;;
18657;SDS011;9458;50.942;5.074;2023-04-16T08:55:10;14.80;;;10.82;;
18657;SDS011;9458;50.942;5.074;2023-04-16T08:57:42;17.45;;;11.77;;
18657;SDS011;9458;50.942;5.074;2023-04-16T09:00:14;19.17;;;11.25;;
18657;SDS011;9458;50.942;5.074;2023-04-16T09:02:54;16.38;;;11.43;;
18657;SDS011;9458;50.942;5.074;2023-04-16T09:05:24;15.55;;;10.30;;
18657;SDS011;9458;50.942;5.074;2023-04-16T09:07:54;16.77;;;11.25;;
18657;SDS011;9458;50.942;5.074;2023-04-16T09:10:25;14.93;;;10.90;;
18657;SDS011;9458;50.942;5.074;2023-04-16T09:12:54;18.85;;;11.90;;
18657;SDS011;9458;50.942;5.074;2023-04-16T09:15:22;16.88;;;11.77;;
18657;SDS011;9458;50.942;5.074;2023-04-16T09:17:54;14.73;;;12.07;;
18657;SDS011;9458;50.942;5.074;2023-04-16T09:20:23;17.02;;;11.98;;
18657;SDS011;9458;50.942;5.074;2023-04-16T09:22:51;16.80;;;11.65;;
18657;SDS011;9458;50.942;5.074;2023-04-16T09:25:19;17.55;;;11.93;;
18657;SDS011;9458;50.942;5.074;2023-04-16T09:27:48;15.90;;;11.15;;
18657;SDS011;9458;50.942;5.074;2023-04-16T09:30:17;16.23;;;12.10;;
18657;SDS011;9458;50.942;5.074;2023-04-16T09:32:47;18.10;;;12.65;;
18657;SDS011;9458;50.942;5.074;2023-04-16T09:35:18;19.38;;;12.07;;
18657;SDS011;9458;50.942;5.074;2023-04-16T09:37:53;15.82;;;11.23;;
18657;SDS011;9458;50.942;5.074;2023-04-16T09:40:23;18.60;;;12.43;;
18657;SDS011;9458;50.942;5.074;2023-04-16T09:42:51;19.40;;;12.27;;
18657;SDS011;9458;50.942;5.074;2023-04-16T09:45:24;17.27;;;11.95;;
18657;SDS011;9458;50.942;5.074;2023-04-16T09:48:01;22.27;;;13.18;;
18657;SDS011;9458;50.942;5.074;2023-04-16T09:50:32;21.70;;;13.10;;
18657;SDS011;9458;50.942;5.074;2023-04-16T09:53:00;17.40;;;12.95;;
18657;SDS011;9458;50.942;5.074;2023-04-16T09:55:29;17.83;;;12.25;;
18657;SDS011;9458;50.942;5.074;2023-04-16T09:57:58;19.50;;;12.80;;
18657;SDS011;9458;50.942;5.074;2023-04-16T10:00:27;19.92;;;12.85;;
18657;SDS011;9458;50.942;5.074;2023-04-16T10:03:05;16.50;;;12.38;;
18657;SDS011;9458;50.942;5.074;2023-04-16T10:05:45;19.52;;;12.15;;
18657;SDS011;9458;50.942;5.074;2023-04-16T10:08:13;17.02;;;12.95;;
18657;SDS011;9458;50.942;5.074;2023-04-16T10:10:40;16.23;;;12.43;;
18657;SDS011;9458;50.942;5.074;2023-04-16T10:13:08;18.58;;;12.60;;
18657;SDS011;9458;50.942;5.074;2023-04-16T10:15:37;20.17;;;13.57;;
18657;SDS011;9458;50.942;5.074;2023-04-16T10:18:06;18.63;;;13.50;;
18657;SDS011;9458;50.942;5.074;2023-04-16T10:20:34;22.67;;;13.18;;
18657;SDS011;9458;50.942;5.074;2023-04-16T10:23:04;17.48;;;13.50;;
18657;SDS011;9458;50.942;5.074;2023-04-16T10:25:33;21.08;;;15.00;;
18657;SDS011;9458;50.942;5.074;2023-04-16T10:28:01;23.10;;;14.20;;
18657;SDS011;9458;50.942;5.074;2023-04-16T10:30:32;20.73;;;13.30;;
18657;SDS011;9458;50.942;5.074;2023-04-16T10:33:00;21.83;;;14.57;;
18657;SDS011;9458;50.942;5.074;2023-04-16T10:35:30;18.75;;;14.10;;
18657;SDS011;9458;50.942;5.074;2023-04-16T10:38:02;20.45;;;14.35;;
18657;SDS011;9458;50.942;5.074;2023-04-16T10:40:56;18.92;;;14.60;;
18657;SDS011;9458;50.942;5.074;2023-04-16T10:43:25;18.08;;;13.98;;
18657;SDS011;9458;50.942;5.074;2023-04-16T10:45:54;20.02;;;14.23;;
18657;SDS011;9458;50.942;5.074;2023-04-16T10:48:22;22.10;;;14.57;;
18657;SDS011;9458;50.942;5.074;2023-04-16T10:50:53;18.63;;;14.40;;
18657;SDS011;9458;50.942;5.074;2023-04-16T10:53:24;17.90;;;14.20;;
18657;SDS011;9458;50.942;5.074;2023-04-16T10:55:56;20.15;;;14.05;;
18657;SDS011;9458;50.942;5.074;2023-04-16T10:58:28;18.27;;;13.38;;
18657;SDS011;9458;50.942;5.074;2023-04-16T11:00:58;20.45;;;14.63;;
18657;SDS011;9458;50.942;5.074;2023-04-16T11:03:29;19.30;;;14.15;;
18657;SDS011;9458;50.942;5.074;2023-04-16T11:06:08;19.75;;;14.75;;
18657;SDS011;9458;50.942;5.074;2023-04-16T11:08:42;18.98;;;14.52;;
18657;SDS011;9458;50.942;5.074;2023-04-16T11:11:11;20.75;;;14.70;;
18657;SDS011;9458;50.942;5.074;2023-04-16T11:13:41;20.85;;;14.68;;
18657;SDS011;9458;50.942;5.074;2023-04-16T11:16:10;19.95;;;15.48;;
18657;SDS011;9458;50.942;5.074;2023-04-16T11:18:40;20.85;;;14.77;;
18657;SDS011;9458;50.942;5.074;2023-04-16T11:21:08;18.83;;;14.32;;
18657;SDS011;9458;50.942;5.074;2023-04-16T11:23:47;23.27;;;15.20;;
18657;SDS011;9458;50.942;5.074;2023-04-16T11:26:20;21.23;;;15.77;;
18657;SDS011;9458;50.942;5.074;2023-04-16T11:28:52;20.35;;;16.15;;
18657;SDS011;9458;50.942;5.074;2023-04-16T11:31:22;22.85;;;17.55;;
18657;SDS011;9458;50.942;5.074;2023-04-16T13:20:15;22.17;;;15.75;;
18657;SDS011;9458;50.942;5.074;2023-04-16T13:22:46;21.88;;;16.40;;
18657;SDS011;9458;50.942;5.074;2023-04-16T13:25:14;24.52;;;17.08;;
18657;SDS011;9458;50.942;5.074;2023-04-16T13:27:42;24.98;;;16.67;;
18657;SDS011;9458;50.942;5.074;2023-04-16T13:30:10;21.65;;;16.13;;
18657;SDS011;9458;50.942;5.074;2023-04-16T13:32:49;19.38;;;15.85;;
18657;SDS011;9458;50.942;5.074;2023-04-16T13:35:20;23.60;;;15.57;;
18657;SDS011;9458;50.942;5.074;2023-04-16T13:37:52;24.08;;;15.63;;
18657;SDS011;9458;50.942;5.074;2023-04-16T13:40:22;20.63;;;15.60;;
18657;SDS011;9458;50.942;5.074;2023-04-16T13:42:54;20.42;;;15.32;;
18657;SDS011;9458;50.942;5.074;2023-04-16T13:45:22;20.70;;;15.93;;
18657;SDS011;9458;50.942;5.074;2023-04-16T13:47:51;20.50;;;16.30;;
18657;SDS011;9458;50.942;5.074;2023-04-16T13:50:20;21.40;;;15.43;;
18657;SDS011;9458;50.942;5.074;2023-04-16T13:52:49;20.65;;;15.02;;
18657;SDS011;9458;50.942;5.074;2023-04-16T13:55:16;20.05;;;14.75;;
18657;SDS011;9458;50.942;5.074;2023-04-16T13:57:44;21.80;;;16.00;;
18657;SDS011;9458;50.942;5.074;2023-04-16T14:00:14;18.67;;;15.32;;
18657;SDS011;9458;50.942;5.074;2023-04-16T14:02:46;22.48;;;15.60;;
18657;SDS011;9458;50.942;5.074;2023-04-16T14:05:23;19.52;;;15.27;;
18657;SDS011;9458;50.942;5.074;2023-04-16T14:07:56;22.33;;;15.57;;
18657;SDS011;9458;50.942;5.074;2023-04-16T14:10:24;20.35;;;14.95;;
18657;SDS011;9458;50.942;5.074;2023-04-16T14:12:54;18.50;;;15.88;;
18657;SDS011;9458;50.942;5.074;2023-04-16T14:15:35;20.20;;;15.20;;
18657;SDS011;9458;50.942;5.074;2023-04-16T14:18:02;23.25;;;15.68;;
18657;SDS011;9458;50.942;5.074;2023-04-16T14:20:39;18.95;;;15.10;;
18657;SDS011;9458;50.942;5.074;2023-04-16T14:23:07;22.77;;;15.65;;
18657;SDS011;9458;50.942;5.074;2023-04-16T14:25:40;20.13;;;16.95;;
18657;SDS011;9458;50.942;5.074;2023-04-16T14:28:09;19.38;;;15.48;;
18657;SDS011;9458;50.942;5.074;2023-04-16T14:30:37;18.85;;;14.82;;
18657;SDS011;9458;50.942;5.074;2023-04-16T14:33:06;21.25;;;16.00;;
18657;SDS011;9458;50.942;5.074;2023-04-16T14:35:35;20.05;;;15.65;;
18657;SDS011;9458;50.942;5.074;2023-04-16T14:38:06;19.45;;;16.02;;
18657;SDS011;9458;50.942;5.074;2023-04-16T14:40:34;21.98;;;16.30;;
18657;SDS011;9458;50.942;5.074;2023-04-16T14:43:04;18.10;;;15.93;;
18657;SDS011;9458;50.942;5.074;2023-04-16T14:45:35;19.35;;;14.75;;
18657;SDS011;9458;50.942;5.074;2023-04-16T14:48:04;17.13;;;14.88;;
18657;SDS011;9458;50.942;5.074;2023-04-16T14:50:34;18.52;;;15.00;;
18657;SDS011;9458;50.942;5.074;2023-04-16T14:53:21;21.27;;;17.35;;
18657;SDS011;9458;50.942;5.074;2023-04-16T14:55:52;20.33;;;16.73;;
18657;SDS011;9458;50.942;5.074;2023-04-16T14:58:33;20.77;;;16.05;;
18657;SDS011;9458;50.942;5.074;2023-04-16T15:01:01;19.88;;;17.48;;
18657;SDS011;9458;50.942;5.074;2023-04-16T15:03:42;24.58;;;18.15;;
18657;SDS011;9458;50.942;5.074;2023-04-16T15:06:10;20.52;;;18.30;;
18657;SDS011;9458;50.942;5.074;2023-04-16T15:08:38;24.80;;;17.88;;
18657;SDS011;9458;50.942;5.074;2023-04-16T15:11:06;20.15;;;17.38;;
18657;SDS011;9458;50.942;5.074;2023-04-16T15:13:36;20.90;;;17.80;;
18657;SDS011;9458;50.942;5.074;2023-04-16T15:16:03;21.58;;;17.73;;
18657;SDS011;9458;50.942;5.074;2023-04-16T15:18:32;21.48;;;17.00;;
18657;SDS011;9458;50.942;5.074;2023-04-16T15:21:00;22.27;;;16.77;;
18657;SDS011;9458;50.942;5.074;2023-04-16T15:23:28;20.67;;;16.75;;
18657;SDS011;9458;50.942;5.074;2023-04-16T15:25:57;23.13;;;17.13;;
18657;SDS011;9458;50.942;5.074;2023-04-16T15:28:25;21.33;;;15.70;;
18657;SDS011;9458;50.942;5.074;2023-04-16T15:30:54;18.88;;;15.88;;
18657;SDS011;9458;50.942;5.074;2023-04-16T15:33:22;22.73;;;16.98;;
18657;SDS011;9458;50.942;5.074;2023-04-16T15:35:50;24.23;;;17.13;;
18657;SDS011;9458;50.942;5.074;2023-04-16T15:38:18;22.40;;;15.68;;
18657;SDS011;9458;50.942;5.074;2023-04-16T15:40:46;20.02;;;15.77;;
18657;SDS011;9458;50.942;5.074;2023-04-16T15:43:16;19.30;;;15.80;;
18657;SDS011;9458;50.942;5.074;2023-04-16T15:45:44;19.27;;;15.57;;
18657;SDS011;9458;50.942;5.074;2023-04-16T15:48:12;18.77;;;16.17;;
18657;SDS011;9458;50.942;5.074;2023-04-16T15:50:43;21.70;;;17.80;;
18657;SDS011;9458;50.942;5.074;2023-04-16T15:53:10;20.65;;;17.05;;
18657;SDS011;9458;50.942;5.074;2023-04-16T15:55:38;22.38;;;17.75;;
18657;SDS011;9458;50.942;5.074;2023-04-16T15:58:06;19.70;;;16.73;;
18657;SDS011;9458;50.942;5.074;2023-04-16T16:00:35;22.33;;;16.15;;
18657;SDS011;9458;50.942;5.074;2023-04-16T16:03:03;20.08;;;16.50;;
18657;SDS011;9458;50.942;5.074;2023-04-16T16:05:31;24.70;;;17.25;;
18657;SDS011;9458;50.942;5.074;2023-04-16T16:25:13;21.63;;;15.75;;
18657;SDS011;9458;50.942;5.074;2023-04-16T16:27:41;23.67;;;17.60;;
18657;SDS011;9458;50.942;5.074;2023-04-16T16:30:09;21.02;;;17.33;;
18657;SDS011;9458;50.942;5.074;2023-04-16T16:32:37;19.95;;;16.13;;
18657;SDS011;9458;50.942;5.074;2023-04-16T16:35:08;22.40;;;16.83;;
18657;SDS011;9458;50.942;5.074;2023-04-16T16:37:39;20.52;;;16.08;;
18657;SDS011;9458;50.942;5.074;2023-04-16T16:40:09;24.15;;;17.15;;
18657;SDS011;9458;50.942;5.074;2023-04-16T16:42:37;23.73;;;16.25;;
18657;SDS011;9458;50.942;5.074;2023-04-16T16:45:05;22.90;;;16.88;;
18657;SDS011;9458;50.942;5.074;2023-04-16T16:47:34;23.42;;;17.02;;
18657;SDS011;9458;50.942;5.074;2023-04-16T16:50:01;24.33;;;16.10;;
18657;SDS011;9458;50.942;5.074;2023-04-16T16:52:30;23.50;;;15.63;;
18657;SDS011;9458;50.942;5.074;2023-04-16T16:54:58;24.00;;;16.58;;
18657;SDS011;9458;50.942;5.074;2023-04-16T16:57:28;21.08;;;16.55;;
18657;SDS011;9458;50.942;5.074;2023-04-16T16:59:56;20.55;;;16.40;;
18657;SDS011;9458;50.942;5.074;2023-04-16T17:02:23;21.58;;;16.75;;